Aviation Digital Data Service (ADDS)

Output produced by METARs form (1832 UTC 19 April 2019)
found at http://www.aviationweather.gov/metar/data/
 
METAR text: ZYHB 191800Z 16004MPS CAVOK 03/M09 Q1011 NOSIG
Conditions at: ZYHB (HARBIN , CN) observed 1800 UTC 19 April 2019
Temperature: 3.0°C (37°F)
Dewpoint: -9.0°C (16°F) [RH = 41%]
Pressure (altimeter): 29.85 inches Hg (1011.0 mb)
Winds: from the SSE (160 degrees) at 9 MPH (8 knots; 4.1 m/s)
Visibility: 6 or more miles (10+ km)
Ceiling: ceiling and visibility are OK
Clouds: unknown
Weather: no significant weather observed at this time

METAR text: ZYHB 191700Z 15003MPS CAVOK 03/M10 Q1012 NOSIG
Conditions at: ZYHB (HARBIN , CN) observed 1700 UTC 19 April 2019
Temperature: 3.0°C (37°F)
Dewpoint: -10.0°C (14°F) [RH = 38%]
Pressure (altimeter): 29.88 inches Hg (1012.0 mb)
Winds: from the SSE (150 degrees) at 7 MPH (6 knots; 3.1 m/s)
Visibility: 6 or more miles (10+ km)
Ceiling: ceiling and visibility are OK
Clouds: unknown
Weather: no significant weather observed at this time

METAR text: ZYHB 191600Z 14003MPS CAVOK 04/M10 Q1013 NOSIG
Conditions at: ZYHB (HARBIN , CN) observed 1600 UTC 19 April 2019
Temperature: 4.0°C (39°F)
Dewpoint: -10.0°C (14°F) [RH = 35%]
Pressure (altimeter): 29.91 inches Hg (1013.0 mb)
Winds: from the SE (140 degrees) at 7 MPH (6 knots; 3.1 m/s)
Visibility: 6 or more miles (10+ km)
Ceiling: ceiling and visibility are OK
Clouds: unknown
Weather: no significant weather observed at this time

METAR text: ZYHB 191500Z 14003MPS CAVOK 04/M09 Q1014 NOSIG
Conditions at: ZYHB (HARBIN , CN) observed 1500 UTC 19 April 2019
Temperature: 4.0°C (39°F)
Dewpoint: -9.0°C (16°F) [RH = 38%]
Pressure (altimeter): 29.94 inches Hg (1014.0 mb)
Winds: from the SE (140 degrees) at 7 MPH (6 knots; 3.1 m/s)
Visibility: 6 or more miles (10+ km)
Ceiling: ceiling and visibility are OK
Clouds: unknown
Weather: no significant weather observed at this time

METAR text: ZYHB 191400Z 12003MPS CAVOK 05/M09 Q1014 NOSIG
Conditions at: ZYHB (HARBIN , CN) observed 1400 UTC 19 April 2019
Temperature: 5.0°C (41°F)
Dewpoint: -9.0°C (16°F) [RH = 35%]
Pressure (altimeter): 29.94 inches Hg (1014.0 mb)
Winds: from the ESE (120 degrees) at 7 MPH (6 knots; 3.1 m/s)
Visibility: 6 or more miles (10+ km)
Ceiling: ceiling and visibility are OK
Clouds: unknown
Weather: no significant weather observed at this time

METAR text: ZYHB 191300Z 12002MPS CAVOK 06/M09 Q1015 NOSIG
Conditions at: ZYHB (HARBIN , CN) observed 1300 UTC 19 April 2019
Temperature: 6.0°C (43°F)
Dewpoint: -9.0°C (16°F) [RH = 33%]
Pressure (altimeter): 29.97 inches Hg (1015.0 mb)
Winds: from the ESE (120 degrees) at 5 MPH (4 knots; 2.1 m/s)
Visibility: 6 or more miles (10+ km)
Ceiling: ceiling and visibility are OK
Clouds: unknown
Weather: no significant weather observed at this time

METAR text: ZYHB 191200Z 12003MPS CAVOK 07/M08 Q1015 NOSIG
Conditions at: ZYHB (HARBIN , CN) observed 1200 UTC 19 April 2019
Temperature: 7.0°C (45°F)
Dewpoint: -8.0°C (18°F) [RH = 33%]
Pressure (altimeter): 29.97 inches Hg (1015.0 mb)
Winds: from the ESE (120 degrees) at 7 MPH (6 knots; 3.1 m/s)
Visibility: 6 or more miles (10+ km)
Ceiling: ceiling and visibility are OK
Clouds: unknown
Weather: no significant weather observed at this time

METAR text: ZYHB 191100Z 12002MPS CAVOK 08/M08 Q1015 NOSIG
Conditions at: ZYHB (HARBIN , CN) observed 1100 UTC 19 April 2019
Temperature: 8.0°C (46°F)
Dewpoint: -8.0°C (18°F) [RH = 31%]
Pressure (altimeter): 29.97 inches Hg (1015.0 mb)
Winds: from the ESE (120 degrees) at 5 MPH (4 knots; 2.1 m/s)
Visibility: 6 or more miles (10+ km)
Ceiling: ceiling and visibility are OK
Clouds: unknown
Weather: no significant weather observed at this time

METAR text: ZYHB 191000Z 08002MPS 060V130 CAVOK 10/M10 Q1015 NOSIG
Conditions at: ZYHB (HARBIN , CN) observed 1000 UTC 19 April 2019
Temperature: 10.0°C (50°F)
Dewpoint: -10.0°C (14°F) [RH = 23%]
Pressure (altimeter): 29.97 inches Hg (1015.0 mb)
Winds: from the E (80 degrees) at 5 MPH (4 knots; 2.1 m/s)
Visibility: 6 or more miles (10+ km)
Ceiling: ceiling and visibility are OK
Clouds: unknown
Weather: no significant weather observed at this time

METAR text: ZYHB 190900Z 26003MPS 200V330 CAVOK 12/M12 Q1015 NOSIG
Conditions at: ZYHB (HARBIN , CN) observed 0900 UTC 19 April 2019
Temperature: 12.0°C (54°F)
Dewpoint: -12.0°C (10°F) [RH = 17%]
Pressure (altimeter): 29.97 inches Hg (1015.0 mb)
Winds: from the W (260 degrees) at 7 MPH (6 knots; 3.1 m/s)
Visibility: 6 or more miles (10+ km)
Ceiling: ceiling and visibility are OK
Clouds: unknown
Weather: no significant weather observed at this time

METAR text: ZYHB 190800Z 28003MPS 220V310 CAVOK 11/M12 Q1016 NOSIG
Conditions at: ZYHB (HARBIN , CN) observed 0800 UTC 19 April 2019
Temperature: 11.0°C (52°F)
Dewpoint: -12.0°C (10°F) [RH = 19%]
Pressure (altimeter): 30.00 inches Hg (1016.0 mb)
Winds: from the W (280 degrees) at 7 MPH (6 knots; 3.1 m/s)
Visibility: 6 or more miles (10+ km)
Ceiling: ceiling and visibility are OK
Clouds: unknown
Weather: no significant weather observed at this time

METAR text: ZYHB 190700Z VRB03G08MPS CAVOK 12/M12 Q1017 NOSIG
Conditions at: ZYHB (HARBIN , CN) observed 0700 UTC 19 April 2019
Temperature: 12.0°C (54°F)
Dewpoint: -12.0°C (10°F) [RH = 17%]
Pressure (altimeter): 30.03 inches Hg (1017.0 mb)
Winds: variable direction winds at 7 MPH (6 knots; 3.1 m/s)
gusting to 18 MPH (16 knots; 8.2 m/s)
Visibility: 6 or more miles (10+ km)
Ceiling: ceiling and visibility are OK
Clouds: unknown
Weather: no significant weather observed at this time

METAR text: ZYHB 190600Z VRB04G10MPS CAVOK 11/M12 Q1018 NOSIG
Conditions at: ZYHB (HARBIN , CN) observed 0600 UTC 19 April 2019
Temperature: 11.0°C (52°F)
Dewpoint: -12.0°C (10°F) [RH = 19%]
Pressure (altimeter): 30.06 inches Hg (1018.0 mb)
Winds: variable direction winds at 9 MPH (8 knots; 4.1 m/s)
gusting to 22 MPH (19 knots; 9.8 m/s)
Visibility: 6 or more miles (10+ km)
Ceiling: ceiling and visibility are OK
Clouds: unknown
Weather: no significant weather observed at this time

METAR text: ZYHB 190500Z 31004MPS 260V350 CAVOK 10/M12 Q1019 NOSIG
Conditions at: ZYHB (HARBIN , CN) observed 0500 UTC 19 April 2019
Temperature: 10.0°C (50°F)
Dewpoint: -12.0°C (10°F) [RH = 20%]
Pressure (altimeter): 30.09 inches Hg (1019.0 mb)
Winds: from the NW (310 degrees) at 9 MPH (8 knots; 4.1 m/s)
Visibility: 6 or more miles (10+ km)
Ceiling: ceiling and visibility are OK
Clouds: unknown
Weather: no significant weather observed at this time

METAR text: ZYHB 190400Z 33005MPS 290V010 CAVOK 09/M13 Q1020 BECMG TL0530 26002MPS
Conditions at: ZYHB (HARBIN , CN) observed 0400 UTC 19 April 2019
Temperature: 9.0°C (48°F)
Dewpoint: -13.0°C ( 9°F) [RH = 20%]
Pressure (altimeter): 30.12 inches Hg (1020.0 mb)
Winds: from the NNW (330 degrees) at 12 MPH (10 knots; 5.1 m/s)
Visibility: 6 or more miles (10+ km)
Ceiling: ceiling and visibility are OK
Clouds: unknown
Weather: no significant weather observed at this time

METAR text: ZYHB 190300Z VRB03MPS CAVOK 09/M13 Q1020 NOSIG
Conditions at: ZYHB (HARBIN , CN) observed 0300 UTC 19 April 2019
Temperature: 9.0°C (48°F)
Dewpoint: -13.0°C ( 9°F) [RH = 20%]
Pressure (altimeter): 30.12 inches Hg (1020.0 mb)
Winds: variable direction winds at 7 MPH (6 knots; 3.1 m/s)
Visibility: 6 or more miles (10+ km)
Ceiling: ceiling and visibility are OK
Clouds: unknown
Weather: no significant weather observed at this time

METAR text: ZYHB 190200Z 34004MPS 290V040 CAVOK 08/M14 Q1021 NOSIG
Conditions at: ZYHB (HARBIN , CN) observed 0200 UTC 19 April 2019
Temperature: 8.0°C (46°F)
Dewpoint: -14.0°C ( 7°F) [RH = 19%]
Pressure (altimeter): 30.15 inches Hg (1021.0 mb)
Winds: from the NNW (340 degrees) at 9 MPH (8 knots; 4.1 m/s)
Visibility: 6 or more miles (10+ km)
Ceiling: ceiling and visibility are OK
Clouds: unknown
Weather: no significant weather observed at this time

METAR text: ZYHB 190100Z 03002MPS 340V080 CAVOK 07/M13 Q1020 NOSIG
Conditions at: ZYHB (HARBIN , CN) observed 0100 UTC 19 April 2019
Temperature: 7.0°C (45°F)
Dewpoint: -13.0°C ( 9°F) [RH = 22%]
Pressure (altimeter): 30.12 inches Hg (1020.0 mb)
Winds: from the NNE (30 degrees) at 5 MPH (4 knots; 2.1 m/s)
Visibility: 6 or more miles (10+ km)
Ceiling: ceiling and visibility are OK
Clouds: unknown
Weather: no significant weather observed at this time

METAR text: ZYHB 190000Z 04004MPS CAVOK 05/M13 Q1020 NOSIG
Conditions at: ZYHB (HARBIN , CN) observed 0000 UTC 19 April 2019
Temperature: 5.0°C (41°F)
Dewpoint: -13.0°C ( 9°F) [RH = 26%]
Pressure (altimeter): 30.12 inches Hg (1020.0 mb)
Winds: from the NE (40 degrees) at 9 MPH (8 knots; 4.1 m/s)
Visibility: 6 or more miles (10+ km)
Ceiling: ceiling and visibility are OK
Clouds: unknown
Weather: no significant weather observed at this time

METAR text: ZYHB 182300Z 36002MPS CAVOK 04/M06 Q1020 NOSIG
Conditions at: ZYHB (HARBIN , CN) observed 2300 UTC 18 April 2019
Temperature: 4.0°C (39°F)
Dewpoint: -6.0°C (21°F) [RH = 48%]
Pressure (altimeter): 30.12 inches Hg (1020.0 mb)
Winds: from the N (360 degrees) at 5 MPH (4 knots; 2.1 m/s)
Visibility: 6 or more miles (10+ km)
Ceiling: ceiling and visibility are OK
Clouds: unknown
Weather: no significant weather observed at this time

METAR text: ZYHB 182200Z 01001MPS CAVOK 01/M04 Q1019 NOSIG
Conditions at: ZYHB (HARBIN , CN) observed 2200 UTC 18 April 2019
Temperature: 1.0°C (34°F)
Dewpoint: -4.0°C (25°F) [RH = 69%]
Pressure (altimeter): 30.09 inches Hg (1019.0 mb)
Winds: from the N (10 degrees) at 2 MPH (2 knots; 1.0 m/s)
Visibility: 6 or more miles (10+ km)
Ceiling: ceiling and visibility are OK
Clouds: unknown
Weather: no significant weather observed at this time

METAR text: ZYHB 182100Z 34001MPS CAVOK M01/M05 Q1018 NOSIG
Conditions at: ZYHB (HARBIN , CN) observed 2100 UTC 18 April 2019
Temperature: -1.0°C (30°F)
Dewpoint: -5.0°C (23°F) [RH = 74%]
Pressure (altimeter): 30.06 inches Hg (1018.0 mb)
Winds: from the NNW (340 degrees) at 2 MPH (2 knots; 1.0 m/s)
Visibility: 6 or more miles (10+ km)
Ceiling: ceiling and visibility are OK
Clouds: unknown
Weather: no significant weather observed at this time

METAR text: ZYHB 182000Z 02002MPS CAVOK 00/M06 Q1017 NOSIG
Conditions at: ZYHB (HARBIN , CN) observed 2000 UTC 18 April 2019
Temperature: 0.0°C (32°F)
Dewpoint: -6.0°C (21°F) [RH = 64%]
Pressure (altimeter): 30.03 inches Hg (1017.0 mb)
Winds: from the NNE (20 degrees) at 5 MPH (4 knots; 2.1 m/s)
Visibility: 6 or more miles (10+ km)
Ceiling: ceiling and visibility are OK
Clouds: unknown
Weather: no significant weather observed at this time

METAR text: ZYHB 181900Z 33002MPS CAVOK 01/M06 Q1017 NOSIG
Conditions at: ZYHB (HARBIN , CN) observed 1900 UTC 18 April 2019
Temperature: 1.0°C (34°F)
Dewpoint: -6.0°C (21°F) [RH = 59%]
Pressure (altimeter): 30.03 inches Hg (1017.0 mb)
Winds: from the NNW (330 degrees) at 5 MPH (4 knots; 2.1 m/s)
Visibility: 6 or more miles (10+ km)
Ceiling: ceiling and visibility are OK
Clouds: unknown
Weather: no significant weather observed at this time

METAR text: ZYHB 181800Z 29003MPS CAVOK 02/M07 Q1016 NOSIG
Conditions at: ZYHB (HARBIN , CN) observed 1800 UTC 18 April 2019
Temperature: 2.0°C (36°F)
Dewpoint: -7.0°C (19°F) [RH = 51%]
Pressure (altimeter): 30.00 inches Hg (1016.0 mb)
Winds: from the WNW (290 degrees) at 7 MPH (6 knots; 3.1 m/s)
Visibility: 6 or more miles (10+ km)
Ceiling: ceiling and visibility are OK
Clouds: unknown
Weather: no significant weather observed at this time

METAR text: ZYHB 181700Z 26004MPS CAVOK 03/M08 Q1016 NOSIG
Conditions at: ZYHB (HARBIN , CN) observed 1700 UTC 18 April 2019
Temperature: 3.0°C (37°F)
Dewpoint: -8.0°C (18°F) [RH = 44%]
Pressure (altimeter): 30.00 inches Hg (1016.0 mb)
Winds: from the W (260 degrees) at 9 MPH (8 knots; 4.1 m/s)
Visibility: 6 or more miles (10+ km)
Ceiling: ceiling and visibility are OK
Clouds: unknown
Weather: no significant weather observed at this time

METAR text: ZYHB 181600Z 25003MPS CAVOK 02/M08 Q1016 NOSIG
Conditions at: ZYHB (HARBIN , CN) observed 1600 UTC 18 April 2019
Temperature: 2.0°C (36°F)
Dewpoint: -8.0°C (18°F) [RH = 47%]
Pressure (altimeter): 30.00 inches Hg (1016.0 mb)
Winds: from the WSW (250 degrees) at 7 MPH (6 knots; 3.1 m/s)
Visibility: 6 or more miles (10+ km)
Ceiling: ceiling and visibility are OK
Clouds: unknown
Weather: no significant weather observed at this time

METAR text: ZYHB 181500Z 21003MPS CAVOK 01/M08 Q1016 NOSIG
Conditions at: ZYHB (HARBIN , CN) observed 1500 UTC 18 April 2019
Temperature: 1.0°C (34°F)
Dewpoint: -8.0°C (18°F) [RH = 51%]
Pressure (altimeter): 30.00 inches Hg (1016.0 mb)
Winds: from the SSW (210 degrees) at 7 MPH (6 knots; 3.1 m/s)
Visibility: 6 or more miles (10+ km)
Ceiling: ceiling and visibility are OK
Clouds: unknown
Weather: no significant weather observed at this time

METAR text: ZYHB 181400Z 18003MPS CAVOK 02/M08 Q1016 NOSIG
Conditions at: ZYHB (HARBIN , CN) observed 1400 UTC 18 April 2019
Temperature: 2.0°C (36°F)
Dewpoint: -8.0°C (18°F) [RH = 47%]
Pressure (altimeter): 30.00 inches Hg (1016.0 mb)
Winds: from the S (180 degrees) at 7 MPH (6 knots; 3.1 m/s)
Visibility: 6 or more miles (10+ km)
Ceiling: ceiling and visibility are OK
Clouds: unknown
Weather: no significant weather observed at this time

METAR text: ZYHB 181300Z 17003MPS CAVOK 03/M07 Q1016 NOSIG
Conditions at: ZYHB (HARBIN , CN) observed 1300 UTC 18 April 2019
Temperature: 3.0°C (37°F)
Dewpoint: -7.0°C (19°F) [RH = 48%]
Pressure (altimeter): 30.00 inches Hg (1016.0 mb)
Winds: from the S (170 degrees) at 7 MPH (6 knots; 3.1 m/s)
Visibility: 6 or more miles (10+ km)
Ceiling: ceiling and visibility are OK
Clouds: unknown
Weather: no significant weather observed at this time

METAR text: ZYHB 181200Z 17003MPS CAVOK 03/M06 Q1016 NOSIG
Conditions at: ZYHB (HARBIN , CN) observed 1200 UTC 18 April 2019
Temperature: 3.0°C (37°F)
Dewpoint: -6.0°C (21°F) [RH = 52%]
Pressure (altimeter): 30.00 inches Hg (1016.0 mb)
Winds: from the S (170 degrees) at 7 MPH (6 knots; 3.1 m/s)
Visibility: 6 or more miles (10+ km)
Ceiling: ceiling and visibility are OK
Clouds: unknown
Weather: no significant weather observed at this time

METAR text: ZYHB 181100Z 17001MPS CAVOK 04/M06 Q1015 NOSIG
Conditions at: ZYHB (HARBIN , CN) observed 1100 UTC 18 April 2019
Temperature: 4.0°C (39°F)
Dewpoint: -6.0°C (21°F) [RH = 48%]
Pressure (altimeter): 29.97 inches Hg (1015.0 mb)
Winds: from the S (170 degrees) at 2 MPH (2 knots; 1.0 m/s)
Visibility: 6 or more miles (10+ km)
Ceiling: ceiling and visibility are OK
Clouds: unknown
Weather: no significant weather observed at this time

METAR text: ZYHB 181000Z 36002MPS CAVOK 08/M08 Q1016 NOSIG
Conditions at: ZYHB (HARBIN , CN) observed 1000 UTC 18 April 2019
Temperature: 8.0°C (46°F)
Dewpoint: -8.0°C (18°F) [RH = 31%]
Pressure (altimeter): 30.00 inches Hg (1016.0 mb)
Winds: from the N (360 degrees) at 5 MPH (4 knots; 2.1 m/s)
Visibility: 6 or more miles (10+ km)
Ceiling: ceiling and visibility are OK
Clouds: unknown
Weather: no significant weather observed at this time

METAR text: ZYHB 180900Z 34006MPS CAVOK 08/M09 Q1016 NOSIG
Conditions at: ZYHB (HARBIN , CN) observed 0900 UTC 18 April 2019
Temperature: 8.0°C (46°F)
Dewpoint: -9.0°C (16°F) [RH = 29%]
Pressure (altimeter): 30.00 inches Hg (1016.0 mb)
Winds: from the NNW (340 degrees) at 14 MPH (12 knots; 6.2 m/s)
Visibility: 6 or more miles (10+ km)
Ceiling: ceiling and visibility are OK
Clouds: unknown
Weather: no significant weather observed at this time

METAR text: ZYHB 180800Z 34008MPS CAVOK 09/M09 Q1015 BECMG TL0940 31003MPS
Conditions at: ZYHB (HARBIN , CN) observed 0800 UTC 18 April 2019
Temperature: 9.0°C (48°F)
Dewpoint: -9.0°C (16°F) [RH = 27%]
Pressure (altimeter): 29.97 inches Hg (1015.0 mb)
Winds: from the NNW (340 degrees) at 18 MPH (16 knots; 8.2 m/s)
Visibility: 6 or more miles (10+ km)
Ceiling: ceiling and visibility are OK
Clouds: unknown
Weather: no significant weather observed at this time

METAR text: ZYHB 180700Z 34011MPS CAVOK 09/M11 Q1015 BECMG TL0830 31004MPS
Conditions at: ZYHB (HARBIN , CN) observed 0700 UTC 18 April 2019
Temperature: 9.0°C (48°F)
Dewpoint: -11.0°C (12°F) [RH = 23%]
Pressure (altimeter): 29.97 inches Hg (1015.0 mb)
Winds: from the NNW (340 degrees) at 24 MPH (21 knots; 10.8 m/s)
Visibility: 6 or more miles (10+ km)
Ceiling: ceiling and visibility are OK
Clouds: unknown
Weather: no significant weather observed at this time

Forecast for: ZYHB (HARBIN , CN)
Text: TAF ZYHB 191506Z 1918/2018 18004MPS 6000 SCT030 TX15/2006Z TN01/1921Z
Forecast period: 1800 UTC 19 April 2019 to 0100 UTC 20 April 2019
Forecast type: FROM: standard forecast or significant change
Winds: from the S (180 degrees) at 9 MPH (8 knots; 4.1 m/s)
Visibility: 4 miles (6 km)
Ceiling: at least 12,000 feet AGL
Clouds: scattered clouds at 3000 feet AGL
Weather: no significant weather forecast for this period
Text: BECMG 2001/2003 26008G14MPS
Forecast period: 0100 to 0500 UTC 20 April 2019
Forecast type: BECOMING: Conditions expected to become as follows by 0300 UTC 20 April 2019
Winds: from the W (260 degrees) at 18 MPH (16 knots; 8.2 m/s)
gusting to 31 MPH (27 knots; 13.9 m/s)
Visibility: 4 miles (6 km)
Ceiling: at least 12,000 feet AGL
Clouds: scattered clouds at 3000 feet AGL
Weather: no significant weather forecast for this period
Text: BECMG 2005/2007 32004MPS
Forecast period: 0500 to 1800 UTC 20 April 2019
Forecast type: BECOMING: Conditions expected to become as follows by 0700 UTC 20 April 2019
Winds: from the NW (320 degrees) at 9 MPH (8 knots; 4.1 m/s)
Visibility: 4 miles (6 km)
Ceiling: at least 12,000 feet AGL
Clouds: scattered clouds at 3000 feet AGL
Weather: no significant weather forecast for this period